sensor_id;sensor_type;location;lat;lon;timestamp;pressure;altitude;pressure_sealevel;temperature;humidity
2681;BME280;1350;42.134;24.708;2023-05-29T00:02:24;99025.63;;;18.04;100.00
2681;BME280;1350;42.134;24.708;2023-05-29T00:04:51;99007.41;;;17.98;100.00
2681;BME280;1350;42.134;24.708;2023-05-29T00:07:18;99013.06;;;17.86;100.00
2681;BME280;1350;42.134;24.708;2023-05-29T00:09:46;99010.34;;;17.76;100.00
2681;BME280;1350;42.134;24.708;2023-05-29T00:12:13;99014.31;;;17.82;100.00
2681;BME280;1350;42.134;24.708;2023-05-29T00:14:40;99015.00;;;17.84;100.00
2681;BME280;1350;42.134;24.708;2023-05-29T00:17:07;99015.72;;;17.86;100.00
2681;BME280;1350;42.134;24.708;2023-05-29T00:19:34;99015.75;;;17.95;100.00
2681;BME280;1350;42.134;24.708;2023-05-29T00:22:01;99020.84;;;17.98;100.00
2681;BME280;1350;42.134;24.708;2023-05-29T00:24:28;99017.28;;;17.88;100.00
2681;BME280;1350;42.134;24.708;2023-05-29T00:26:56;99014.75;;;17.96;100.00
2681;BME280;1350;42.134;24.708;2023-05-29T00:29:22;99009.38;;;17.96;100.00
2681;BME280;1350;42.134;24.708;2023-05-29T00:31:49;99005.72;;;17.97;100.00
2681;BME280;1350;42.134;24.708;2023-05-29T00:34:18;99001.78;;;18.01;100.00
2681;BME280;1350;42.134;24.708;2023-05-29T00:36:45;99003.47;;;17.83;100.00
2681;BME280;1350;42.134;24.708;2023-05-29T00:39:13;99000.91;;;17.82;100.00
2681;BME280;1350;42.134;24.708;2023-05-29T00:41:39;99003.47;;;17.83;100.00
2681;BME280;1350;42.134;24.708;2023-05-29T00:44:07;99007.69;;;17.86;100.00
2681;BME280;1350;42.134;24.708;2023-05-29T00:46:34;99009.53;;;17.95;100.00
2681;BME280;1350;42.134;24.708;2023-05-29T00:49:01;98999.94;;;18.02;100.00
2681;BME280;1350;42.134;24.708;2023-05-29T00:51:29;98995.69;;;17.90;100.00
2681;BME280;1350;42.134;24.708;2023-05-29T00:53:57;98988.34;;;17.82;100.00
2681;BME280;1350;42.134;24.708;2023-05-29T00:56:25;98995.56;;;17.82;100.00
2681;BME280;1350;42.134;24.708;2023-05-29T00:58:53;98985.94;;;17.79;100.00
2681;BME280;1350;42.134;24.708;2023-05-29T01:01:21;98992.00;;;17.81;100.00
2681;BME280;1350;42.134;24.708;2023-05-29T01:03:48;98992.03;;;17.91;100.00
2681;BME280;1350;42.134;24.708;2023-05-29T01:06:15;98991.31;;;17.98;100.00
2681;BME280;1350;42.134;24.708;2023-05-29T01:08:42;98991.47;;;18.06;100.00
2681;BME280;1350;42.134;24.708;2023-05-29T01:11:16;98990.47;;;18.17;100.00
2681;BME280;1350;42.134;24.708;2023-05-29T01:13:45;98992.31;;;18.16;100.00
2681;BME280;1350;42.134;24.708;2023-05-29T01:16:18;98986.78;;;18.08;100.00
2681;BME280;1350;42.134;24.708;2023-05-29T01:18:54;98984.97;;;17.99;100.00
2681;BME280;1350;42.134;24.708;2023-05-29T01:21:27;98993.72;;;18.01;100.00
2681;BME280;1350;42.134;24.708;2023-05-29T01:24:14;98988.06;;;18.14;100.00
2681;BME280;1350;42.134;24.708;2023-05-29T01:26:55;98986.22;;;18.14;100.00
2681;BME280;1350;42.134;24.708;2023-05-29T01:29:28;98989.75;;;18.05;100.00
2681;BME280;1350;42.134;24.708;2023-05-29T01:31:57;98982.56;;;18.15;100.00
2681;BME280;1350;42.134;24.708;2023-05-29T01:34:24;98982.72;;;18.23;100.00
2681;BME280;1350;42.134;24.708;2023-05-29T01:36:51;98984.97;;;18.18;100.00
2681;BME280;1350;42.134;24.708;2023-05-29T01:39:18;98980.72;;;18.25;100.00
2681;BME280;1350;42.134;24.708;2023-05-29T01:41:46;98982.13;;;18.20;100.00
2681;BME280;1350;42.134;24.708;2023-05-29T01:44:15;98986.78;;;18.27;100.00
2681;BME280;1350;42.134;24.708;2023-05-29T01:46:42;98986.50;;;18.30;100.00
2681;BME280;1350;42.134;24.708;2023-05-29T01:49:11;98990.91;;;18.22;100.00
2681;BME280;1350;42.134;24.708;2023-05-29T01:51:38;98987.22;;;18.13;100.00
2681;BME280;1350;42.134;24.708;2023-05-29T01:54:08;98989.75;;;18.15;100.00
2681;BME280;1350;42.134;24.708;2023-05-29T01:56:35;98994.28;;;18.24;100.00
2681;BME280;1350;42.134;24.708;2023-05-29T01:59:03;98990.91;;;18.22;100.00
2681;BME280;1350;42.134;24.708;2023-05-29T02:01:31;98989.91;;;18.23;100.00
2681;BME280;1350;42.134;24.708;2023-05-29T02:03:58;99000.94;;;18.20;100.00
2681;BME280;1350;42.134;24.708;2023-05-29T02:06:25;98994.97;;;18.16;100.00
2681;BME280;1350;42.134;24.708;2023-05-29T02:08:51;98994.28;;;18.14;100.00
2681;BME280;1350;42.134;24.708;2023-05-29T02:11:18;98997.09;;;18.22;100.00
2681;BME280;1350;42.134;24.708;2023-05-29T02:13:45;98997.09;;;18.22;100.00
2681;BME280;1350;42.134;24.708;2023-05-29T02:16:12;99008.13;;;18.29;100.00
2681;BME280;1350;42.134;24.708;2023-05-29T02:18:40;99008.84;;;18.31;100.00
2681;BME280;1350;42.134;24.708;2023-05-29T02:21:08;99009.13;;;18.28;100.00
2681;BME280;1350;42.134;24.708;2023-05-29T02:23:35;99017.28;;;17.98;100.00
2681;BME280;1350;42.134;24.708;2023-05-29T02:26:02;99006.13;;;18.02;100.00
2681;BME280;1350;42.134;24.708;2023-05-29T02:28:28;99011.50;;;18.21;100.00
2681;BME280;1350;42.134;24.708;2023-05-29T02:30:55;99010.22;;;18.16;100.00
2681;BME280;1350;42.134;24.708;2023-05-29T02:33:22;99002.75;;;18.29;100.00
2681;BME280;1350;42.134;24.708;2023-05-29T02:35:50;99008.41;;;18.16;100.00
2681;BME280;1350;42.134;24.708;2023-05-29T02:38:17;99010.38;;;18.14;100.00
2681;BME280;1350;42.134;24.708;2023-05-29T02:40:44;99012.38;;;18.22;100.00
2681;BME280;1350;42.134;24.708;2023-05-29T02:43:12;99015.44;;;18.17;100.00
2681;BME280;1350;42.134;24.708;2023-05-29T02:45:39;99016.59;;;18.24;100.00
2681;BME280;1350;42.134;24.708;2023-05-29T02:48:06;99015.16;;;18.30;100.00
2681;BME280;1350;42.134;24.708;2023-05-29T02:50:33;99016.03;;;18.30;100.00
2681;BME280;1350;42.134;24.708;2023-05-29T02:53:01;99008.25;;;18.37;100.00
2681;BME280;1350;42.134;24.708;2023-05-29T02:55:31;99009.97;;;18.09;100.00
2681;BME280;1350;42.134;24.708;2023-05-29T02:58:01;99015.19;;;18.01;100.00
2681;BME280;1350;42.134;24.708;2023-05-29T03:00:28;99014.59;;;17.88;100.00
2681;BME280;1350;42.134;24.708;2023-05-29T03:02:55;99010.94;;;17.89;100.00
2681;BME280;1350;42.134;24.708;2023-05-29T03:05:21;99017.28;;;17.79;100.00
2681;BME280;1350;42.134;24.708;2023-05-29T03:07:48;99019.78;;;17.61;100.00
2681;BME280;1350;42.134;24.708;2023-05-29T03:10:16;99025.28;;;17.60;100.00
2681;BME280;1350;42.134;24.708;2023-05-29T03:12:44;99026.84;;;17.72;100.00
2681;BME280;1350;42.134;24.708;2023-05-29T03:15:10;99022.94;;;17.76;100.00
2681;BME280;1350;42.134;24.708;2023-05-29T03:17:37;99031.66;;;17.78;100.00
2681;BME280;1350;42.134;24.708;2023-05-29T03:20:05;99029.56;;;17.81;100.00
2681;BME280;1350;42.134;24.708;2023-05-29T03:22:33;99031.53;;;17.89;100.00
2681;BME280;1350;42.134;24.708;2023-05-29T03:25:00;99035.34;;;17.96;100.00
2681;BME280;1350;42.134;24.708;2023-05-29T03:27:29;99034.94;;;18.10;100.00
2681;BME280;1350;42.134;24.708;2023-05-29T03:29:56;99040.31;;;18.19;100.00
2681;BME280;1350;42.134;24.708;2023-05-29T03:32:23;99038.63;;;18.18;100.00
2681;BME280;1350;42.134;24.708;2023-05-29T03:34:50;99036.53;;;18.22;100.00
2681;BME280;1350;42.134;24.708;2023-05-29T03:37:17;99034.25;;;18.27;100.00
2681;BME280;1350;42.134;24.708;2023-05-29T03:39:43;99039.75;;;18.35;100.00
2681;BME280;1350;42.134;24.708;2023-05-29T03:42:10;99042.44;;;18.16;100.00
2681;BME280;1350;42.134;24.708;2023-05-29T03:44:38;99053.03;;;18.17;100.00
2681;BME280;1350;42.134;24.708;2023-05-29T03:47:05;99046.84;;;18.17;100.00
2681;BME280;1350;42.134;24.708;2023-05-29T03:49:34;99044.84;;;18.28;100.00
2681;BME280;1350;42.134;24.708;2023-05-29T03:52:00;99044.69;;;18.20;100.00
2681;BME280;1350;42.134;24.708;2023-05-29T03:54:27;99036.38;;;18.23;100.00
2681;BME280;1350;42.134;24.708;2023-05-29T03:56:54;99035.66;;;18.21;100.00
2681;BME280;1350;42.134;24.708;2023-05-29T03:59:21;99038.34;;;18.12;100.00
2681;BME280;1350;42.134;24.708;2023-05-29T04:01:49;99035.09;;;18.08;100.00
2681;BME280;1350;42.134;24.708;2023-05-29T04:04:15;99038.19;;;18.04;100.00
2681;BME280;1350;42.134;24.708;2023-05-29T04:06:42;99046.66;;;17.99;100.00
2681;BME280;1350;42.134;24.708;2023-05-29T04:09:09;99047.97;;;18.05;100.00
2681;BME280;1350;42.134;24.708;2023-05-29T04:11:36;99055.03;;;18.15;100.00
2681;BME280;1350;42.134;24.708;2023-05-29T04:14:04;99054.03;;;18.26;100.00
2681;BME280;1350;42.134;24.708;2023-05-29T04:16:30;99051.94;;;18.29;100.00
2681;BME280;1350;42.134;24.708;2023-05-29T04:18:58;99055.63;;;18.38;100.00
2681;BME280;1350;42.134;24.708;2023-05-29T04:21:25;99060.84;;;18.39;100.00
2681;BME280;1350;42.134;24.708;2023-05-29T04:23:52;99055.28;;;18.31;100.00
2681;BME280;1350;42.134;24.708;2023-05-29T04:28:50;99041.97;;;18.87;100.00
2681;BME280;1350;42.134;24.708;2023-05-29T04:31:22;99061.66;;;18.69;100.00
2681;BME280;1350;42.134;24.708;2023-05-29T04:33:51;99071.97;;;18.64;100.00
2681;BME280;1350;42.134;24.708;2023-05-29T04:36:22;99082.72;;;18.64;100.00
2681;BME280;1350;42.134;24.708;2023-05-29T04:38:51;99084.44;;;18.74;100.00
2681;BME280;1350;42.134;24.708;2023-05-29T04:41:18;99083.16;;;18.69;100.00
2681;BME280;1350;42.134;24.708;2023-05-29T04:43:45;99091.19;;;18.78;100.00
2681;BME280;1350;42.134;24.708;2023-05-29T04:46:13;99094.31;;;18.83;100.00
2681;BME280;1350;42.134;24.708;2023-05-29T04:48:40;99092.03;;;18.88;100.00
2681;BME280;1350;42.134;24.708;2023-05-29T04:51:09;99099.97;;;18.80;100.00
2681;BME280;1350;42.134;24.708;2023-05-29T04:53:38;99094.31;;;18.74;100.00
2681;BME280;1350;42.134;24.708;2023-05-29T04:56:06;99100.38;;;18.85;100.00
2681;BME280;1350;42.134;24.708;2023-05-29T04:58:33;99096.84;;;18.85;100.00
2681;BME280;1350;42.134;24.708;2023-05-29T05:00:59;99102.75;;;18.88;100.00
2681;BME280;1350;42.134;24.708;2023-05-29T05:03:28;99102.50;;;18.91;100.00
2681;BME280;1350;42.134;24.708;2023-05-29T05:05:56;99109.41;;;18.94;100.00
2681;BME280;1350;42.134;24.708;2023-05-29T05:08:22;99107.44;;;18.96;100.00
2681;BME280;1350;42.134;24.708;2023-05-29T05:10:50;99118.31;;;19.04;100.00
2681;BME280;1350;42.134;24.708;2023-05-29T05:13:17;99114.06;;;19.11;100.00
2681;BME280;1350;42.134;24.708;2023-05-29T05:15:44;99115.44;;;19.15;100.00
2681;BME280;1350;42.134;24.708;2023-05-29T05:18:10;99123.06;;;19.19;100.00
2681;BME280;1350;42.134;24.708;2023-05-29T05:20:37;99121.84;;;19.04;100.00
2681;BME280;1350;42.134;24.708;2023-05-29T05:23:04;99114.34;;;19.08;100.00
2681;BME280;1350;42.134;24.708;2023-05-29T05:25:30;99128.72;;;19.26;100.00
2681;BME280;1350;42.134;24.708;2023-05-29T05:27:59;99134.09;;;19.26;100.00
2681;BME280;1350;42.134;24.708;2023-05-29T05:30:26;99129.47;;;19.28;100.00
2681;BME280;1350;42.134;24.708;2023-05-29T05:32:53;99129.56;;;19.36;100.00
2681;BME280;1350;42.134;24.708;2023-05-29T05:35:20;99130.88;;;19.32;100.00
2681;BME280;1350;42.134;24.708;2023-05-29T05:37:46;99143.34;;;19.14;100.00
2681;BME280;1350;42.134;24.708;2023-05-29T05:40:13;99135.97;;;19.16;100.00
2681;BME280;1350;42.134;24.708;2023-05-29T05:42:40;99136.38;;;19.21;100.00
2681;BME280;1350;42.134;24.708;2023-05-29T05:45:09;99134.47;;;19.50;100.00
2681;BME280;1350;42.134;24.708;2023-05-29T05:47:36;99125.22;;;19.98;100.00
2681;BME280;1350;42.134;24.708;2023-05-29T05:50:04;99128.13;;;20.50;100.00
2681;BME280;1350;42.134;24.708;2023-05-29T05:52:31;99133.53;;;20.67;100.00
2681;BME280;1350;42.134;24.708;2023-05-29T05:54:58;99139.41;;;20.63;100.00
2681;BME280;1350;42.134;24.708;2023-05-29T05:57:25;99145.63;;;20.46;100.00
2681;BME280;1350;42.134;24.708;2023-05-29T05:59:52;99154.06;;;20.06;100.00
2681;BME280;1350;42.134;24.708;2023-05-29T06:02:20;99153.34;;;20.04;100.00
2681;BME280;1350;42.134;24.708;2023-05-29T06:04:47;99154.13;;;19.96;100.00
2681;BME280;1350;42.134;24.708;2023-05-29T06:07:14;99158.56;;;19.88;100.00
2681;BME280;1350;42.134;24.708;2023-05-29T06:09:41;99159.03;;;20.01;100.00
2681;BME280;1350;42.134;24.708;2023-05-29T06:12:08;99153.75;;;20.09;100.00
2681;BME280;1350;42.134;24.708;2023-05-29T06:14:35;99150.03;;;20.20;100.00
2681;BME280;1350;42.134;24.708;2023-05-29T06:17:02;99145.38;;;20.22;100.00
2681;BME280;1350;42.134;24.708;2023-05-29T06:19:30;99145.84;;;20.35;100.00
2681;BME280;1350;42.134;24.708;2023-05-29T06:21:57;99152.94;;;20.36;100.00
2681;BME280;1350;42.134;24.708;2023-05-29T06:24:23;99155.63;;;20.36;100.00
2681;BME280;1350;42.134;24.708;2023-05-29T06:26:50;99151.22;;;20.35;100.00
2681;BME280;1350;42.134;24.708;2023-05-29T06:29:17;99154.22;;;20.32;100.00
2681;BME280;1350;42.134;24.708;2023-05-29T06:31:43;99154.81;;;20.26;100.00
2681;BME280;1350;42.134;24.708;2023-05-29T06:34:10;99153.81;;;20.27;100.00
2681;BME280;1350;42.134;24.708;2023-05-29T06:36:39;99157.91;;;20.31;100.00
2681;BME280;1350;42.134;24.708;2023-05-29T06:39:07;99156.31;;;20.38;100.00
2681;BME280;1350;42.134;24.708;2023-05-29T06:41:34;99155.00;;;20.42;100.00
2681;BME280;1350;42.134;24.708;2023-05-29T06:44:00;99156.47;;;20.54;100.00
2681;BME280;1350;42.134;24.708;2023-05-29T06:46:27;99163.03;;;20.69;100.00
2681;BME280;1350;42.134;24.708;2023-05-29T06:48:53;99163.50;;;20.82;100.00
2681;BME280;1350;42.134;24.708;2023-05-29T06:51:20;99162.25;;;20.94;100.00
2681;BME280;1350;42.134;24.708;2023-05-29T06:53:48;99164.78;;;21.13;100.00
2681;BME280;1350;42.134;24.708;2023-05-29T06:56:15;99171.00;;;21.31;100.00
2681;BME280;1350;42.134;24.708;2023-05-29T06:58:42;99172.06;;;21.38;100.00
2681;BME280;1350;42.134;24.708;2023-05-29T07:01:11;99170.63;;;21.51;100.00
2681;BME280;1350;42.134;24.708;2023-05-29T07:03:37;99173.06;;;21.62;100.00
2681;BME280;1350;42.134;24.708;2023-05-29T07:06:05;99173.97;;;21.71;100.00
2681;BME280;1350;42.134;24.708;2023-05-29T07:08:32;99176.47;;;21.90;100.00
2681;BME280;1350;42.134;24.708;2023-05-29T07:11:01;99174.34;;;22.02;100.00
2681;BME280;1350;42.134;24.708;2023-05-29T07:13:27;99179.75;;;22.02;100.00
2681;BME280;1350;42.134;24.708;2023-05-29T07:15:54;99176.84;;;21.95;100.00
2681;BME280;1350;42.134;24.708;2023-05-29T07:18:21;99172.66;;;22.09;100.00
2681;BME280;1350;42.134;24.708;2023-05-29T07:20:47;99182.06;;;21.97;100.00
2681;BME280;1350;42.134;24.708;2023-05-29T07:23:14;99184.94;;;21.95;100.00
2681;BME280;1350;42.134;24.708;2023-05-29T07:25:41;99189.53;;;22.03;100.00
2681;BME280;1350;42.134;24.708;2023-05-29T07:28:09;99189.97;;;21.90;100.00
2681;BME280;1350;42.134;24.708;2023-05-29T07:30:35;99193.16;;;21.86;100.00
2681;BME280;1350;42.134;24.708;2023-05-29T07:33:02;99185.19;;;21.84;100.00
2681;BME280;1350;42.134;24.708;2023-05-29T07:35:29;99189.72;;;21.76;100.00
2681;BME280;1350;42.134;24.708;2023-05-29T07:37:58;99187.84;;;21.76;100.00
2681;BME280;1350;42.134;24.708;2023-05-29T07:40:25;99190.13;;;21.89;100.00
2681;BME280;1350;42.134;24.708;2023-05-29T07:42:52;99187.34;;;22.06;100.00
2681;BME280;1350;42.134;24.708;2023-05-29T07:45:20;99186.59;;;22.30;100.00
2681;BME280;1350;42.134;24.708;2023-05-29T07:47:47;99195.09;;;22.43;100.00
2681;BME280;1350;42.134;24.708;2023-05-29T07:50:14;99193.00;;;22.70;100.00
2681;BME280;1350;42.134;24.708;2023-05-29T07:52:42;99196.53;;;22.79;100.00
2681;BME280;1350;42.134;24.708;2023-05-29T07:55:09;99188.94;;;22.66;100.00
2681;BME280;1350;42.134;24.708;2023-05-29T07:57:36;99192.50;;;22.75;100.00
2681;BME280;1350;42.134;24.708;2023-05-29T08:00:05;99207.03;;;22.82;100.00
2681;BME280;1350;42.134;24.708;2023-05-29T08:02:34;99199.97;;;22.97;100.00
2681;BME280;1350;42.134;24.708;2023-05-29T08:05:02;99199.44;;;22.93;100.00
2681;BME280;1350;42.134;24.708;2023-05-29T08:07:31;99194.91;;;22.94;100.00
2681;BME280;1350;42.134;24.708;2023-05-29T08:09:58;99194.06;;;23.01;100.00
2681;BME280;1350;42.134;24.708;2023-05-29T08:12:25;99185.94;;;23.17;100.00
2681;BME280;1350;42.134;24.708;2023-05-29T08:14:52;99190.69;;;23.15;100.00
2681;BME280;1350;42.134;24.708;2023-05-29T08:17:19;99192.88;;;23.12;100.00
2681;BME280;1350;42.134;24.708;2023-05-29T08:19:47;99190.16;;;23.12;100.00
2681;BME280;1350;42.134;24.708;2023-05-29T08:22:14;99189.66;;;23.08;100.00
2681;BME280;1350;42.134;24.708;2023-05-29T08:24:41;99187.13;;;23.15;99.50
2681;BME280;1350;42.134;24.708;2023-05-29T08:27:08;99191.72;;;23.31;97.23
2681;BME280;1350;42.134;24.708;2023-05-29T08:29:34;99193.56;;;23.38;95.67
2681;BME280;1350;42.134;24.708;2023-05-29T08:32:02;99186.78;;;23.58;92.88
2681;BME280;1350;42.134;24.708;2023-05-29T08:34:29;99192.84;;;23.76;92.74
2681;BME280;1350;42.134;24.708;2023-05-29T08:36:57;99180.78;;;23.87;92.44
2681;BME280;1350;42.134;24.708;2023-05-29T08:39:24;99182.97;;;23.91;91.75
2681;BME280;1350;42.134;24.708;2023-05-29T08:41:59;99184.41;;;24.26;91.70
2681;BME280;1350;42.134;24.708;2023-05-29T08:44:30;99182.94;;;24.15;90.16
2681;BME280;1350;42.134;24.708;2023-05-29T08:47:00;99179.88;;;24.18;86.80
2681;BME280;1350;42.134;24.708;2023-05-29T08:49:29;99170.88;;;24.18;85.38
2681;BME280;1350;42.134;24.708;2023-05-29T08:52:09;99168.69;;;24.21;85.86
2681;BME280;1350;42.134;24.708;2023-05-29T08:54:38;99177.38;;;24.01;84.14
2681;BME280;1350;42.134;24.708;2023-05-29T08:57:06;99168.41;;;24.00;86.05
2681;BME280;1350;42.134;24.708;2023-05-29T08:59:36;99166.44;;;24.25;83.12
2681;BME280;1350;42.134;24.708;2023-05-29T09:02:03;99168.53;;;24.45;83.92
2681;BME280;1350;42.134;24.708;2023-05-29T09:04:31;99167.25;;;24.64;84.31
2681;BME280;1350;42.134;24.708;2023-05-29T09:06:58;99167.25;;;24.64;81.71
2681;BME280;1350;42.134;24.708;2023-05-29T09:09:26;99167.78;;;24.59;82.27
2681;BME280;1350;42.134;24.708;2023-05-29T09:11:54;99170.19;;;24.54;81.75
2681;BME280;1350;42.134;24.708;2023-05-29T09:14:34;99167.88;;;24.74;80.61
2681;BME280;1350;42.134;24.708;2023-05-29T09:17:01;99170.94;;;24.71;81.53
2681;BME280;1350;42.134;24.708;2023-05-29T09:19:29;99163.19;;;24.68;81.16
2681;BME280;1350;42.134;24.708;2023-05-29T09:22:02;99163.31;;;24.74;80.67
2681;BME280;1350;42.134;24.708;2023-05-29T09:24:32;99161.69;;;24.65;79.55
2681;BME280;1350;42.134;24.708;2023-05-29T09:26:59;99158.19;;;24.49;80.11
2681;BME280;1350;42.134;24.708;2023-05-29T09:29:26;99162.16;;;24.38;78.44
2681;BME280;1350;42.134;24.708;2023-05-29T09:31:53;99160.50;;;24.29;79.56
2681;BME280;1350;42.134;24.708;2023-05-29T09:34:23;99162.88;;;24.32;80.72
2681;BME280;1350;42.134;24.708;2023-05-29T09:36:50;99162.56;;;24.19;80.90
2681;BME280;1350;42.134;24.708;2023-05-29T09:39:17;99162.88;;;24.32;81.83
2681;BME280;1350;42.134;24.708;2023-05-29T09:41:45;99158.06;;;24.42;84.87
2681;BME280;1350;42.134;24.708;2023-05-29T09:44:14;99163.88;;;24.62;84.06
2681;BME280;1350;42.134;24.708;2023-05-29T09:46:41;99164.53;;;24.64;81.74
2681;BME280;1350;42.134;24.708;2023-05-29T09:49:10;99166.50;;;24.47;82.97
2681;BME280;1350;42.134;24.708;2023-05-29T09:51:37;99161.22;;;24.54;82.06
2681;BME280;1350;42.134;24.708;2023-05-29T09:54:17;99161.31;;;24.60;81.08
2681;BME280;1350;42.134;24.708;2023-05-29T09:56:46;99154.91;;;24.61;79.57
2681;BME280;1350;42.134;24.708;2023-05-29T09:59:13;99149.28;;;24.94;79.09
2681;BME280;1350;42.134;24.708;2023-05-29T10:01:41;99137.69;;;25.00;77.45
2681;BME280;1350;42.134;24.708;2023-05-29T10:04:09;99135.94;;;25.07;75.26
2681;BME280;1350;42.134;24.708;2023-05-29T10:06:45;99134.63;;;25.03;72.64
2681;BME280;1350;42.134;24.708;2023-05-29T10:09:16;99124.69;;;24.95;73.51
2681;BME280;1350;42.134;24.708;2023-05-29T10:11:47;99132.94;;;25.02;71.77
2681;BME280;1350;42.134;24.708;2023-05-29T10:14:17;99121.41;;;25.00;70.88
2681;BME280;1350;42.134;24.708;2023-05-29T10:16:46;99121.16;;;25.09;68.35
2681;BME280;1350;42.134;24.708;2023-05-29T10:19:18;99126.28;;;25.04;66.07
2681;BME280;1350;42.134;24.708;2023-05-29T10:21:48;99120.97;;;25.11;66.38
2681;BME280;1350;42.134;24.708;2023-05-29T10:24:16;99125.97;;;25.22;65.80
2681;BME280;1350;42.134;24.708;2023-05-29T10:26:48;99125.16;;;25.36;65.26
2681;BME280;1350;42.134;24.708;2023-05-29T10:29:20;99120.41;;;25.38;66.63
2681;BME280;1350;42.134;24.708;2023-05-29T10:32:01;99114.91;;;25.60;66.35
2681;BME280;1350;42.134;24.708;2023-05-29T10:34:36;99114.81;;;25.83;67.09
2681;BME280;1350;42.134;24.708;2023-05-29T10:37:15;99108.28;;;25.63;64.87
2681;BME280;1350;42.134;24.708;2023-05-29T10:39:44;99110.22;;;25.83;64.57
2681;BME280;1350;42.134;24.708;2023-05-29T10:42:43;99106.78;;;26.04;65.96
2681;BME280;1350;42.134;24.708;2023-05-29T10:45:11;99107.94;;;26.30;64.06
2681;BME280;1350;42.134;24.708;2023-05-29T10:47:53;99109.31;;;26.41;60.85
2681;BME280;1350;42.134;24.708;2023-05-29T10:50:35;99104.47;;;26.36;59.52
2681;BME280;1350;42.134;24.708;2023-05-29T10:53:02;99109.50;;;26.39;60.26
2681;BME280;1350;42.134;24.708;2023-05-29T10:55:33;99103.53;;;26.65;59.34
2681;BME280;1350;42.134;24.708;2023-05-29T10:58:05;99104.66;;;26.56;59.24
2681;BME280;1350;42.134;24.708;2023-05-29T11:00:32;99097.59;;;26.76;59.11
2681;BME280;1350;42.134;24.708;2023-05-29T11:03:02;99090.22;;;27.19;59.99
2681;BME280;1350;42.134;24.708;2023-05-29T11:05:29;99090.16;;;27.33;60.95
2681;BME280;1350;42.134;24.708;2023-05-29T11:07:57;99092.50;;;27.15;62.18
2681;BME280;1350;42.134;24.708;2023-05-29T11:10:56;99097.00;;;27.50;62.25
2681;BME280;1350;42.134;24.708;2023-05-29T11:13:26;99092.34;;;27.78;59.07
2681;BME280;1350;42.134;24.708;2023-05-29T11:16:10;99088.97;;;27.42;57.80
2681;BME280;1350;42.134;24.708;2023-05-29T11:18:41;99094.66;;;26.99;59.60
2681;BME280;1350;42.134;24.708;2023-05-29T11:21:21;99079.00;;;27.56;59.43
2681;BME280;1350;42.134;24.708;2023-05-29T11:23:50;99081.41;;;27.38;60.81
2681;BME280;1350;42.134;24.708;2023-05-29T11:26:17;99081.25;;;27.52;59.67
2681;BME280;1350;42.134;24.708;2023-05-29T11:28:47;99081.00;;;27.41;59.34
2681;BME280;1350;42.134;24.708;2023-05-29T11:31:15;99076.16;;;27.70;59.22
2681;BME280;1350;42.134;24.708;2023-05-29T11:33:47;99077.00;;;27.37;60.54
2681;BME280;1350;42.134;24.708;2023-05-29T11:36:15;99076.00;;;27.23;61.31
2681;BME280;1350;42.134;24.708;2023-05-29T11:38:42;99074.13;;;26.96;60.07
2681;BME280;1350;42.134;24.708;2023-05-29T11:41:09;99073.72;;;26.99;60.24
2681;BME280;1350;42.134;24.708;2023-05-29T11:43:36;99075.66;;;27.05;61.67
2681;BME280;1350;42.134;24.708;2023-05-29T11:46:16;99067.78;;;27.38;61.86
2681;BME280;1350;42.134;24.708;2023-05-29T11:48:47;99060.66;;;27.37;60.71
2681;BME280;1350;42.134;24.708;2023-05-29T11:51:14;99061.00;;;27.27;63.29
2681;BME280;1350;42.134;24.708;2023-05-29T11:53:41;99065.47;;;27.14;60.89
2681;BME280;1350;42.134;24.708;2023-05-29T11:56:09;99064.78;;;27.05;62.35
2681;BME280;1350;42.134;24.708;2023-05-29T11:58:36;99059.81;;;26.88;61.08
2681;BME280;1350;42.134;24.708;2023-05-29T12:01:05;99052.09;;;26.91;63.14
2681;BME280;1350;42.134;24.708;2023-05-29T12:03:37;99052.88;;;26.85;62.10
2681;BME280;1350;42.134;24.708;2023-05-29T12:06:05;99044.91;;;27.11;62.77
2681;BME280;1350;42.134;24.708;2023-05-29T12:08:32;99034.47;;;27.15;62.15
2681;BME280;1350;42.134;24.708;2023-05-29T12:10:58;99034.72;;;27.20;60.88
2681;BME280;1350;42.134;24.708;2023-05-29T12:13:25;99034.03;;;27.32;61.34
2681;BME280;1350;42.134;24.708;2023-05-29T12:15:56;99030.91;;;27.35;62.03
2681;BME280;1350;42.134;24.708;2023-05-29T12:18:25;99032.63;;;27.22;61.13
2681;BME280;1350;42.134;24.708;2023-05-29T12:20:57;99022.31;;;27.11;61.06
2681;BME280;1350;42.134;24.708;2023-05-29T12:23:24;99028.28;;;27.00;59.77
2681;BME280;1350;42.134;24.708;2023-05-29T12:25:51;99035.16;;;26.96;59.38
2681;BME280;1350;42.134;24.708;2023-05-29T12:28:18;99028.53;;;27.26;60.63
2681;BME280;1350;42.134;24.708;2023-05-29T12:30:47;99033.22;;;27.17;58.77
2681;BME280;1350;42.134;24.708;2023-05-29T12:33:32;99046.09;;;26.75;58.80
2681;BME280;1350;42.134;24.708;2023-05-29T12:36:04;99035.31;;;26.45;60.15
2681;BME280;1350;42.134;24.708;2023-05-29T12:38:31;99028.31;;;26.58;60.70
2681;BME280;1350;42.134;24.708;2023-05-29T12:40:58;99032.63;;;26.94;60.40
2681;BME280;1350;42.134;24.708;2023-05-29T12:43:25;99026.25;;;27.08;61.21
2681;BME280;1350;42.134;24.708;2023-05-29T12:45:55;99027.66;;;26.98;59.45
2681;BME280;1350;42.134;24.708;2023-05-29T12:48:26;99033.25;;;26.69;57.96
2681;BME280;1350;42.134;24.708;2023-05-29T12:50:54;99029.97;;;26.16;57.54
2681;BME280;1350;42.134;24.708;2023-05-29T12:53:28;99022.50;;;25.89;58.59
2681;BME280;1350;42.134;24.708;2023-05-29T12:55:55;99020.97;;;26.16;59.46
2681;BME280;1350;42.134;24.708;2023-05-29T12:58:25;99021.72;;;26.45;60.61
2681;BME280;1350;42.134;24.708;2023-05-29T13:00:53;99009.00;;;26.31;61.41
2681;BME280;1350;42.134;24.708;2023-05-29T13:03:22;99005.66;;;25.79;63.60
2681;BME280;1350;42.134;24.708;2023-05-29T13:05:50;99012.72;;;25.74;64.29
2681;BME280;1350;42.134;24.708;2023-05-29T13:08:18;99016.44;;;25.73;63.99
2681;BME280;1350;42.134;24.708;2023-05-29T13:10:45;99010.91;;;25.81;63.88
2681;BME280;1350;42.134;24.708;2023-05-29T13:13:12;99015.06;;;25.77;64.11
2681;BME280;1350;42.134;24.708;2023-05-29T13:15:39;99010.81;;;25.89;65.93